Pagrindinis puslapis
METAR-TAF:

METAR-TAF

Oro uostai :

Bahreino tarptautinis oro uostas

Bahreinas, Bahreinas

platuma: 26-16N, ilguma: 050-39E, Aukštis: 2 m

Dabartinis oras

Ataskaita buvo paskelbta 51 minutes, ne 02:00 UTC
Vėjas 6 kt iš Pietų/Pietryčių, svyruoja nuo Pietryčių ir Pietų/Pietvakarių
Temperatūra 26°C
Drėgmė 61%
Slėgis 1007 hPa
Matomumas 10 km arba daugiau
nėra debesų žemiau 1500 m ir nėra kamuolinių lietaus debesų

METAR: OBBI 220200Z 15006KT 130V210 CAVOK 26/18 Q1007 NOSIG

Laikas: 05:51 (02:51 UTC)

Prognozė

Ataskaita buvo paskelbta 3 valandos ir 51 minutes, ne 23:00 UTC
Prognozė galioja nuo 22 metu 00 UTC su 23 metu 06 UTC
Vėjas 9 kt iš Pietryčių
Matomumas 10 km arba daugiau
nėra debesų žemiau 1500 m ir nėra kamuolinių lietaus debesų
Tapsmas
nuo 22 metu 19 UTC su 22 metu 21 UTC
Vėjas 18 kt iš Šiaurės/Šiaurės Vakarų

TAF: OBBI 212300Z 2200/2306 13009KT CAVOK BECMG 2219/2221 33018KT

Orai ataskaitas ir orų prognozės (METAR, TAF).

turimą stotys yra geltonos ir raudonos taškus žemėlapyje.

Perkelti pele per norėdami pamatyti stoties vardą.

Tada spustelėkite, norėdami matyti oro stebėjimo ir prognozės.

Norėdami pakeisti žemėlapį: spustelėkite ant žalios mygtukų su juodo kryžiaus žemyn,; žalią mygtuką su brūkšneliu, jei norite nutolinti; arba žalių rodyklių gretimoms žemėlapius.


METAR-TAF: